Time;durP1;ratioP1;P1;durP2;ratioP2;P2;SDS_P1;SDS_P2;PMS_P1;PMS_P2;Temp;Humidity;BMP_temperature;BMP_pressure;BME280_temperature;BME280_humidity;BME280_pressure;Samples;Min_cycle;Max_cycle;Signal;HPM_P1;HPM_P2
2023/06/08 00:02:17;;;;;;;14.60;6.32;;;11.30;95.10;;;;;;4806314;29;20077;-68
2023/06/08 00:04:46;;;;;;;15.32;7.53;;;11.30;95.50;;;;;;4807315;29;20148;-68
2023/06/08 00:07:16;;;;;;;15.93;6.57;;;11.30;95.20;;;;;;4808541;29;20050;-68
2023/06/08 00:09:43;;;;;;;13.98;6.68;;;11.30;95.20;;;;;;4793012;29;20064;-68
2023/06/08 00:12:10;;;;;;;13.57;6.85;;;11.30;95.30;;;;;;4805274;29;20145;-68
2023/06/08 00:14:36;;;;;;;17.45;7.22;;;11.30;95.20;;;;;;4812341;29;20050;-68
2023/06/08 00:17:03;;;;;;;14.00;6.77;;;11.30;95.50;;;;;;4808005;29;20407;-68
2023/06/08 00:19:33;;;;;;;15.93;7.38;;;11.40;95.20;;;;;;4809962;29;20314;-68
2023/06/08 00:22:04;;;;;;;15.27;7.88;;;11.40;95.40;;;;;;4795323;29;20034;-68
2023/06/08 00:24:37;;;;;;;13.35;6.88;;;11.30;95.80;;;;;;4791562;29;20074;-68
2023/06/08 00:27:05;;;;;;;17.05;7.95;;;11.30;95.60;;;;;;4806226;29;20034;-68
2023/06/08 00:29:31;;;;;;;16.08;8.90;;;11.30;96.80;;;;;;4810712;29;20050;-68
2023/06/08 00:31:57;;;;;;;17.90;9.23;;;11.40;96.10;;;;;;4806192;29;20043;-68
2023/06/08 00:34:24;;;;;;;22.50;9.67;;;11.40;96.10;;;;;;4790438;29;20050;-68
2023/06/08 00:36:50;;;;;;;21.33;10.27;;;11.40;96.40;;;;;;4806856;29;20070;-68
2023/06/08 00:39:16;;;;;;;18.63;10.73;;;11.40;96.50;;;;;;4805379;29;20463;-68
2023/06/08 00:41:41;;;;;;;25.10;12.23;;;11.40;96.10;;;;;;4805806;29;20103;-68
2023/06/08 00:44:08;;;;;;;22.90;12.70;;;11.30;96.20;;;;;;4805415;29;20066;-68
2023/06/08 00:46:35;;;;;;;31.83;14.52;;;11.40;96.20;;;;;;4809401;29;20508;-68
2023/06/08 00:49:02;;;;;;;28.33;15.38;;;11.40;96.50;;;;;;4808873;29;20050;-68
2023/06/08 00:51:33;;;;;;;26.58;14.48;;;11.40;96.60;;;;;;4812313;29;20050;-68
2023/06/08 00:54:00;;;;;;;25.55;13.88;;;11.40;96.10;;;;;;4791251;29;20081;-68
2023/06/08 00:56:31;;;;;;;23.63;13.13;;;11.30;97.20;;;;;;4806240;29;20111;-68
2023/06/08 00:59:00;;;;;;;26.17;13.82;;;11.40;96.80;;;;;;4791102;29;20038;-68
2023/06/08 01:01:30;;;;;;;25.63;13.57;;;11.40;96.70;;;;;;4805605;29;20125;-68
2023/06/08 01:04:05;;;;;;;21.52;12.13;;;11.30;97.00;;;;;;4809717;29;20038;-68
2023/06/08 01:06:45;;;;;;;23.35;11.32;;;11.30;96.90;;;;;;4810730;29;20054;-68
2023/06/08 01:09:26;;;;;;;17.58;10.27;;;11.30;96.90;;;;;;4804158;29;20153;-68
2023/06/08 01:11:55;;;;;;;19.70;10.35;;;11.30;97.00;;;;;;4804765;29;20046;-68
2023/06/08 01:14:43;;;;;;;15.68;9.00;;;11.30;97.20;;;;;;4799233;29;20054;-68
2023/06/08 01:17:12;;;;;;;20.48;10.00;;;11.30;96.50;;;;;;4802958;29;20050;-68
2023/06/08 01:19:57;;;;;;;20.60;9.88;;;11.30;96.60;;;;;;4804348;29;20108;-68
2023/06/08 01:22:44;;;;;;;20.10;9.65;;;11.30;97.10;;;;;;4817261;29;20058;-68
2023/06/08 01:25:11;;;;;;;15.52;9.68;;;11.30;96.90;;;;;;4797013;29;20418;-68
2023/06/08 01:27:38;;;;;;;21.55;10.85;;;11.30;97.20;;;;;;4805639;29;20145;-68
2023/06/08 01:30:06;;;;;;;18.25;8.95;;;11.30;96.90;;;;;;4809263;29;20117;-68
2023/06/08 01:32:32;;;;;;;19.25;9.82;;;11.30;97.10;;;;;;4806937;29;20054;-68
2023/06/08 01:34:57;;;;;;;20.37;10.20;;;11.30;97.50;;;;;;4812916;29;20050;-68
2023/06/08 01:37:43;;;;;;;21.77;10.07;;;11.30;97.30;;;;;;4806440;29;20038;-68
2023/06/08 01:40:25;;;;;;;21.33;10.10;;;11.30;97.10;;;;;;4800319;29;20043;-68
2023/06/08 01:42:52;;;;;;;19.23;9.77;;;11.30;97.70;;;;;;4801251;29;20081;-68
2023/06/08 01:45:25;;;;;;;19.05;8.55;;;11.30;97.70;;;;;;4804430;29;20099;-68
2023/06/08 01:47:52;;;;;;;20.38;9.57;;;11.30;97.70;;;;;;4806197;29;20069;-68
2023/06/08 01:50:19;;;;;;;16.58;8.65;;;11.40;97.80;;;;;;4821361;29;20161;-68
2023/06/08 01:52:45;;;;;;;18.58;9.13;;;11.40;98.10;;;;;;4804498;29;20073;-68
2023/06/08 01:55:18;;;;;;;18.17;8.60;;;11.40;98.10;;;;;;4810264;29;20590;-68
2023/06/08 01:57:44;;;;;;;19.08;8.88;;;11.40;98.50;;;;;;4805153;29;20399;-68
2023/06/08 02:00:12;;;;;;;18.40;8.23;;;11.40;98.30;;;;;;4790976;29;20046;-68
2023/06/08 02:02:38;;;;;;;16.38;7.93;;;11.40;97.80;;;;;;4804576;29;20307;-68
2023/06/08 02:05:07;;;;;;;16.23;8.37;;;11.40;97.80;;;;;;4809047;29;20049;-68
2023/06/08 02:07:33;;;;;;;18.63;8.50;;;11.40;97.70;;;;;;4804603;29;20060;-68
2023/06/08 02:09:58;;;;;;;19.73;9.97;;;11.40;97.80;;;;;;4804840;29;20402;-68
2023/06/08 02:12:24;;;;;;;18.73;9.50;;;11.40;97.80;;;;;;4789279;29;20191;-68
2023/06/08 02:14:50;;;;;;;16.47;8.90;;;11.40;97.90;;;;;;4803934;29;20070;-68
2023/06/08 02:17:18;;;;;;;16.30;8.00;;;11.40;98.30;;;;;;4803721;29;20053;-68
2023/06/08 02:19:44;;;;;;;17.35;7.97;;;11.40;98.10;;;;;;4804103;29;20418;-68
2023/06/08 02:22:10;;;;;;;15.98;8.00;;;11.40;98.00;;;;;;4804063;29;20043;-68
2023/06/08 02:24:36;;;;;;;15.53;7.50;;;11.40;97.40;;;;;;4803932;29;20045;-68
2023/06/08 02:27:02;;;;;;;18.83;8.00;;;11.40;97.40;;;;;;4801923;29;20038;-68
2023/06/08 02:29:28;;;;;;;18.60;7.95;;;11.40;97.60;;;;;;4802612;29;20068;-68
2023/06/08 02:31:53;;;;;;;17.00;8.27;;;11.40;97.80;;;;;;4804699;29;20046;-68
2023/06/08 02:34:19;;;;;;;16.23;7.97;;;11.40;97.80;;;;;;4808982;29;20053;-68
2023/06/08 02:36:47;;;;;;;16.07;8.23;;;11.40;97.60;;;;;;4803527;29;20042;-68
2023/06/08 02:39:15;;;;;;;17.23;8.50;;;11.40;97.40;;;;;;4787891;29;20427;-68
2023/06/08 02:41:40;;;;;;;18.05;8.25;;;11.40;97.60;;;;;;4799695;29;20454;-68
2023/06/08 02:44:06;;;;;;;18.67;8.57;;;11.40;97.70;;;;;;4807664;29;20046;-68
2023/06/08 02:46:32;;;;;;;18.53;9.07;;;11.40;97.60;;;;;;4804230;29;20050;-68
2023/06/08 02:49:00;;;;;;;16.25;8.15;;;11.30;97.30;;;;;;4803970;29;20058;-68
2023/06/08 02:51:26;;;;;;;16.30;7.68;;;11.40;97.50;;;;;;4807490;29;20522;-68
2023/06/08 02:53:52;;;;;;;18.70;8.73;;;11.30;97.90;;;;;;4801676;29;20121;-68
2023/06/08 02:56:17;;;;;;;16.67;8.70;;;11.40;98.00;;;;;;4800409;29;20129;-68
2023/06/08 02:58:46;;;;;;;14.53;8.60;;;11.40;98.20;;;;;;4802957;29;20094;-68
2023/06/08 03:01:16;;;;;;;20.20;8.90;;;11.40;98.30;;;;;;4797864;29;20085;-68
2023/06/08 03:03:47;;;;;;;17.58;7.70;;;11.40;98.10;;;;;;4819582;29;20260;-68
2023/06/08 03:06:17;;;;;;;13.45;7.72;;;11.40;98.20;;;;;;4805365;29;20136;-68
2023/06/08 03:08:53;;;;;;;17.10;7.68;;;11.50;98.30;;;;;;4803128;29;20053;-68
2023/06/08 03:11:20;;;;;;;19.17;7.95;;;11.50;98.10;;;;;;4803402;29;20062;-68
2023/06/08 03:13:46;;;;;;;15.95;7.53;;;11.50;98.30;;;;;;4788413;29;20486;-68
2023/06/08 03:16:14;;;;;;;19.05;7.45;;;11.50;98.50;;;;;;4802923;29;20049;-68
2023/06/08 03:18:40;;;;;;;18.92;7.35;;;11.50;98.60;;;;;;4805323;29;20113;-68
2023/06/08 03:21:12;;;;;;;13.80;7.18;;;11.50;98.50;;;;;;4789690;29;20117;-68
2023/06/08 03:23:38;;;;;;;21.38;8.57;;;11.50;98.70;;;;;;4806679;29;20057;-68
2023/06/08 03:26:04;;;;;;;18.98;8.25;;;11.60;98.40;;;;;;4803763;29;20372;-68
2023/06/08 03:28:30;;;;;;;21.20;9.03;;;11.60;98.60;;;;;;4801166;29;20039;-68
2023/06/08 03:30:56;;;;;;;18.50;7.97;;;11.60;98.40;;;;;;4802910;29;20122;-68
2023/06/08 03:33:22;;;;;;;16.17;7.80;;;11.60;98.60;;;;;;4802864;29;20046;-68
2023/06/08 03:35:48;;;;;;;20.00;8.80;;;11.60;98.20;;;;;;4805673;29;20617;-68
2023/06/08 03:38:14;;;;;;;20.23;9.20;;;11.60;98.50;;;;;;4807159;29;20373;-68
2023/06/08 03:40:40;;;;;;;18.75;8.27;;;11.60;98.10;;;;;;4805607;29;20050;-68
2023/06/08 03:43:05;;;;;;;19.83;8.67;;;11.60;98.40;;;;;;4804136;29;20053;-68
2023/06/08 03:45:31;;;;;;;19.13;8.73;;;11.60;98.70;;;;;;4806947;29;20129;-68
2023/06/08 03:47:57;;;;;;;16.67;8.80;;;11.60;99.00;;;;;;4806811;29;20039;-68
2023/06/08 03:50:23;;;;;;;19.37;7.73;;;11.70;98.70;;;;;;4807646;29;20469;-68
2023/06/08 03:52:48;;;;;;;13.97;8.13;;;11.70;98.40;;;;;;4809401;29;20042;-68
2023/06/08 03:55:16;;;;;;;16.53;7.47;;;11.70;98.50;;;;;;4806119;29;20308;-68
2023/06/08 03:57:42;;;;;;;16.80;6.97;;;11.70;98.70;;;;;;4806609;29;20505;-68
2023/06/08 04:00:11;;;;;;;15.63;7.47;;;11.70;98.60;;;;;;4805482;29;20121;-68
2023/06/08 04:02:40;;;;;;;16.00;7.07;;;11.80;98.40;;;;;;4805406;29;20617;-68
2023/06/08 04:05:06;;;;;;;16.13;7.60;;;11.80;97.90;;;;;;4803800;29;20152;-68
2023/06/08 04:07:34;;;;;;;17.40;7.30;;;11.80;98.10;;;;;;4806953;29;20129;-68
2023/06/08 04:10:01;;;;;;;15.13;6.87;;;11.90;98.10;;;;;;4806774;29;20300;-68
2023/06/08 04:12:27;;;;;;;14.43;6.13;;;11.90;98.20;;;;;;4805925;29;20307;-68
2023/06/08 04:14:52;;;;;;;16.17;6.67;;;11.90;97.90;;;;;;4805594;29;20446;-68
2023/06/08 04:17:18;;;;;;;17.37;5.80;;;11.90;98.00;;;;;;4806066;29;20102;-68
2023/06/08 04:19:44;;;;;;;15.20;5.27;;;12.00;97.60;;;;;;4805694;29;20054;-68
2023/06/08 04:22:10;;;;;;;14.63;6.10;;;12.00;97.80;;;;;;4829614;29;20046;-68
2023/06/08 04:24:38;;;;;;;18.53;5.67;;;12.00;97.80;;;;;;4806167;29;20447;-68
2023/06/08 04:27:05;;;;;;;12.70;6.13;;;12.10;97.70;;;;;;4805799;29;20089;-68
2023/06/08 04:29:31;;;;;;;15.27;5.93;;;12.10;97.40;;;;;;4803823;29;20903;-68
2023/06/08 04:31:57;;;;;;;11.80;5.47;;;12.20;97.20;;;;;;4810872;29;20652;-68
2023/06/08 04:34:23;;;;;;;14.07;5.67;;;12.20;97.20;;;;;;4804492;29;20307;-68
2023/06/08 04:36:49;;;;;;;13.27;5.70;;;12.20;96.80;;;;;;4805833;29;20567;-68
2023/06/08 04:39:15;;;;;;;20.13;5.73;;;12.20;96.70;;;;;;4805754;29;20054;-68
2023/06/08 04:41:41;;;;;;;13.97;5.60;;;12.30;96.70;;;;;;4803936;29;20042;-68
2023/06/08 04:44:08;;;;;;;19.67;5.53;;;12.30;96.90;;;;;;4804251;29;20047;-68
2023/06/08 04:46:37;;;;;;;14.00;5.80;;;12.30;96.70;;;;;;4798437;29;20308;-68
2023/06/08 04:49:03;;;;;;;16.33;5.63;;;12.40;96.70;;;;;;4805236;29;20811;-68
2023/06/08 04:51:29;;;;;;;15.47;5.67;;;12.40;96.20;;;;;;4825714;29;20706;-68
2023/06/08 04:54:05;;;;;;;14.67;5.73;;;12.50;96.10;;;;;;4805339;29;20318;-68
2023/06/08 04:56:33;;;;;;;;;;;12.50;95.80;;;;;;4790228;29;20398;-68
2023/06/08 04:58:59;;;;;;;16.17;5.47;;;12.70;95.80;;;;;;4805548;29;19920;-68
2023/06/08 05:01:26;;;;;;;14.83;5.43;;;12.70;95.30;;;;;;4805008;29;20294;-68
2023/06/08 05:03:51;;;;;;;14.03;5.23;;;12.70;95.20;;;;;;4814463;29;20284;-68
2023/06/08 05:06:18;;;;;;;10.87;5.30;;;12.80;94.70;;;;;;4810324;29;20308;-68
2023/06/08 05:08:44;;;;;;;15.27;5.60;;;12.80;94.50;;;;;;4805589;29;20356;-68
2023/06/08 05:11:11;;;;;;;15.07;5.07;;;12.80;94.20;;;;;;4804991;29;20046;-68
2023/06/08 05:13:37;;;;;;;14.83;5.20;;;12.80;94.10;;;;;;4813079;29;20123;-68
2023/06/08 05:16:03;;;;;;;13.90;5.10;;;12.90;94.00;;;;;;4807657;29;20319;-68
2023/06/08 05:18:29;;;;;;;13.53;5.33;;;12.90;94.20;;;;;;4801219;29;20458;-68
2023/06/08 05:20:55;;;;;;;15.87;5.33;;;13.00;94.00;;;;;;4806036;29;20077;-68
2023/06/08 05:23:21;;;;;;;10.37;4.83;;;13.10;94.10;;;;;;4806282;29;20342;-68
2023/06/08 05:25:46;;;;;;;13.60;5.63;;;13.20;93.40;;;;;;4818873;29;20050;-68
2023/06/08 05:28:12;;;;;;;14.97;5.50;;;13.30;92.70;;;;;;4801978;29;20047;-68
2023/06/08 05:30:38;;;;;;;13.93;4.90;;;13.30;93.00;;;;;;4804166;29;20050;-68
2023/06/08 05:33:03;;;;;;;14.23;5.93;;;13.40;92.20;;;;;;4806152;29;20053;-68
2023/06/08 05:35:29;;;;;;;13.80;5.53;;;13.50;92.10;;;;;;4804392;29;20191;-68
2023/06/08 05:37:55;;;;;;;12.50;5.73;;;13.50;92.40;;;;;;4789240;29;20076;-68
2023/06/08 05:40:21;;;;;;;14.23;5.07;;;13.70;92.80;;;;;;4804077;29;20134;-68
2023/06/08 05:42:49;;;;;;;15.97;5.67;;;13.80;92.20;;;;;;4804643;29;20050;-69
2023/06/08 05:45:16;;;;;;;20.73;6.43;;;13.90;91.30;;;;;;4805649;29;20054;-69
2023/06/08 05:47:42;;;;;;;15.80;5.30;;;14.00;90.20;;;;;;4804302;29;20390;-69
2023/06/08 05:50:08;;;;;;;14.87;5.43;;;14.00;90.20;;;;;;4803889;29;20382;-69
2023/06/08 05:52:33;;;;;;;17.37;5.33;;;14.10;90.00;;;;;;4803722;29;20188;-69
2023/06/08 05:55:00;;;;;;;13.13;5.33;;;14.20;90.10;;;;;;4805534;29;20457;-69
2023/06/08 05:57:26;;;;;;;16.93;5.53;;;14.20;89.20;;;;;;4800928;29;20484;-69
2023/06/08 05:59:52;;;;;;;12.10;5.27;;;14.30;89.10;;;;;;4788936;29;20295;-69
2023/06/08 06:02:18;;;;;;;13.63;5.00;;;14.50;88.30;;;;;;4813666;29;20719;-69
2023/06/08 06:04:44;;;;;;;10.10;4.87;;;14.70;87.90;;;;;;4822270;29;20103;-69
2023/06/08 06:07:09;;;;;;;13.60;4.60;;;14.80;86.80;;;;;;4804851;29;20050;-69
2023/06/08 06:09:35;;;;;;;15.60;4.93;;;14.90;86.50;;;;;;4803982;29;20042;-68
2023/06/08 06:12:02;;;;;;;15.27;5.10;;;14.90;86.20;;;;;;4803040;29;20046;-68
2023/06/08 06:14:36;;;;;;;13.07;4.63;;;14.80;86.50;;;;;;4804347;29;20046;-68
2023/06/08 06:17:02;;;;;;;16.43;5.30;;;14.80;86.70;;;;;;4806677;29;20327;-69
2023/06/08 06:19:29;;;;;;;13.13;5.27;;;14.80;86.80;;;;;;4803537;29;20322;-69
2023/06/08 06:21:54;;;;;;;19.73;5.40;;;14.90;86.20;;;;;;4810422;29;20046;-69
2023/06/08 06:24:20;;;;;;;13.03;4.57;;;15.00;86.10;;;;;;4789170;29;20291;-69
2023/06/08 06:26:45;;;;;;;13.10;4.17;;;15.30;85.60;;;;;;4788606;29;20046;-69
2023/06/08 06:29:11;;;;;;;12.33;4.30;;;15.40;83.80;;;;;;4802881;29;20042;-69
2023/06/08 06:31:37;;;;;;;14.83;5.30;;;15.40;83.80;;;;;;4802669;29;20050;-69
2023/06/08 06:34:03;;;;;;;14.00;5.23;;;15.40;83.60;;;;;;4787910;29;20423;-69
2023/06/08 06:36:29;;;;;;;13.43;5.23;;;15.40;83.40;;;;;;4805538;29;20281;-69
2023/06/08 06:38:55;;;;;;;13.47;5.03;;;15.50;83.80;;;;;;4803740;29;20526;-69
2023/06/08 06:41:21;;;;;;;13.23;5.50;;;15.80;82.90;;;;;;4801646;29;20311;-69
2023/06/08 06:43:46;;;;;;;14.10;5.23;;;16.00;81.30;;;;;;4803603;29;20042;-69
2023/06/08 06:46:12;;;;;;;13.67;4.90;;;16.20;80.70;;;;;;4791137;29;20041;-69
2023/06/08 06:48:38;;;;;;;17.63;5.57;;;16.50;79.60;;;;;;4803885;29;20522;-69
2023/06/08 06:51:04;;;;;;;15.23;4.83;;;16.70;78.50;;;;;;4803462;29;20103;-69
2023/06/08 06:53:30;;;;;;;12.93;4.90;;;16.80;78.50;;;;;;4802899;29;20175;-69
2023/06/08 06:55:55;;;;;;;13.90;4.57;;;17.00;78.10;;;;;;4802318;29;20994;-68
2023/06/08 06:58:22;;;;;;;14.50;5.00;;;17.20;76.50;;;;;;4797771;29;20408;-69
2023/06/08 07:00:49;;;;;;;11.70;4.13;;;17.30;75.90;;;;;;4804337;29;20522;-69
2023/06/08 07:03:16;;;;;;;9.80;4.57;;;17.40;75.60;;;;;;4803177;29;20283;-69
2023/06/08 07:05:42;;;;;;;11.43;4.90;;;17.60;75.10;;;;;;4804844;29;20284;-69
2023/06/08 07:08:07;;;;;;;9.97;3.70;;;17.50;75.00;;;;;;4801976;29;20803;-69
2023/06/08 07:10:33;;;;;;;12.70;4.43;;;17.50;76.00;;;;;;4806396;29;20064;-69
2023/06/08 07:12:59;;;;;;;11.60;4.63;;;17.60;76.60;;;;;;4821840;29;20405;-69
2023/06/08 07:15:27;;;;;;;11.17;3.97;;;17.60;76.10;;;;;;4790846;29;20054;-69
2023/06/08 07:17:52;;;;;;;10.80;4.30;;;17.50;75.90;;;;;;4806083;29;20069;-69
2023/06/08 07:20:18;;;;;;;11.90;4.30;;;17.50;76.10;;;;;;4823191;29;20284;-68
2023/06/08 07:22:44;;;;;;;14.00;4.17;;;17.30;75.60;;;;;;4807728;29;20125;-69
2023/06/08 07:25:10;;;;;;;11.63;4.60;;;17.20;76.50;;;;;;4805559;29;20042;-69
2023/06/08 07:27:35;;;;;;;13.43;4.30;;;17.20;76.60;;;;;;4809321;29;20610;-68
2023/06/08 07:30:01;;;;;;;13.00;4.40;;;17.10;75.90;;;;;;4806267;29;20124;-69
2023/06/08 07:32:28;;;;;;;14.67;4.87;;;17.10;75.90;;;;;;4806229;29;20049;-69
2023/06/08 07:34:55;;;;;;;14.43;4.73;;;17.10;76.00;;;;;;4804028;29;20287;-70
2023/06/08 07:37:20;;;;;;;13.83;4.10;;;17.00;75.80;;;;;;4824201;29;20290;-70
2023/06/08 07:39:46;;;;;;;14.03;4.10;;;17.10;76.00;;;;;;4807500;29;20283;-70
2023/06/08 07:42:12;;;;;;;11.80;5.00;;;17.20;75.90;;;;;;4807573;29;20464;-70
2023/06/08 07:44:37;;;;;;;13.67;4.93;;;17.20;77.00;;;;;;4807160;29;20054;-70
2023/06/08 07:47:03;;;;;;;15.27;4.93;;;17.30;76.50;;;;;;4810357;29;20119;-70
2023/06/08 07:49:29;;;;;;;12.83;4.10;;;17.30;75.50;;;;;;4812145;29;20762;-69
2023/06/08 07:51:55;;;;;;;10.00;4.47;;;17.30;75.40;;;;;;4811906;29;20124;-70
2023/06/08 07:54:21;;;;;;;11.97;4.30;;;17.30;75.30;;;;;;4809104;29;20066;-70
2023/06/08 07:56:48;;;;;;;10.57;4.50;;;17.40;76.40;;;;;;4804469;29;20704;-70
2023/06/08 07:59:13;;;;;;;12.40;3.93;;;17.50;75.60;;;;;;4806357;29;20304;-70
2023/06/08 08:01:39;;;;;;;10.60;3.90;;;17.60;74.10;;;;;;4807754;29;20294;-70
2023/06/08 08:04:05;;;;;;;12.53;4.47;;;17.60;73.20;;;;;;4791641;29;20053;-69
2023/06/08 08:06:30;;;;;;;12.87;4.50;;;17.60;73.70;;;;;;4799932;29;20551;-70
2023/06/08 08:08:56;;;;;;;13.93;4.03;;;17.60;73.80;;;;;;4796569;29;20049;-70
2023/06/08 08:11:22;;;;;;;9.37;4.00;;;17.60;73.70;;;;;;4825258;29;20050;-69
2023/06/08 08:13:49;;;;;;;9.83;4.40;;;17.60;74.80;;;;;;4809610;29;20140;-70
2023/06/08 08:16:14;;;;;;;9.17;3.53;;;17.70;73.90;;;;;;4797587;29;20050;-70
2023/06/08 08:18:40;;;;;;;11.87;4.13;;;17.70;74.10;;;;;;4806545;29;20869;-70
2023/06/08 08:21:06;;;;;;;11.83;4.03;;;17.80;74.80;;;;;;4808325;29;20049;-70
2023/06/08 08:23:32;;;;;;;14.80;4.27;;;17.90;73.90;;;;;;4812078;29;20056;-70
2023/06/08 08:25:57;;;;;;;10.97;4.10;;;18.00;73.60;;;;;;4807116;29;20085;-69
2023/06/08 08:28:23;;;;;;;12.70;3.47;;;18.10;72.70;;;;;;4809223;29;20054;-70
2023/06/08 08:30:49;;;;;;;11.47;4.80;;;18.20;72.30;;;;;;4809427;29;20052;-70
2023/06/08 08:33:15;;;;;;;8.17;3.40;;;18.20;71.90;;;;;;4808082;29;20119;-71
2023/06/08 08:35:41;;;;;;;11.73;4.60;;;18.20;72.60;;;;;;4809398;29;20319;-71
2023/06/08 08:38:06;;;;;;;16.77;4.93;;;18.30;72.30;;;;;;4806929;29;20045;-71
2023/06/08 08:40:32;;;;;;;12.87;3.83;;;18.40;71.90;;;;;;4804834;29;20035;-70
2023/06/08 08:43:22;;;;;;;11.40;3.80;;;18.40;70.90;;;;;;4799821;29;20459;-69
2023/06/08 08:45:50;;;;;;;12.93;4.37;;;18.50;71.30;;;;;;4803115;29;20050;-70
2023/06/08 08:48:21;;;;;;;10.77;4.00;;;18.60;70.80;;;;;;4803879;29;20302;-70
2023/06/08 08:50:53;;;;;;;11.07;3.77;;;18.60;71.10;;;;;;4798975;29;20586;-71
2023/06/08 08:53:27;;;;;;;9.50;3.90;;;18.60;71.90;;;;;;4798772;29;20304;-70
2023/06/08 08:55:55;;;;;;;13.50;3.50;;;18.70;70.80;;;;;;4805276;29;20308;-72
2023/06/08 08:58:22;;;;;;;7.23;3.80;;;18.80;69.60;;;;;;4804952;29;20310;-70
2023/06/08 09:00:48;;;;;;;10.70;3.70;;;18.80;70.20;;;;;;4805994;29;20914;-70
2023/06/08 09:03:15;;;;;;;10.67;3.73;;;18.90;70.70;;;;;;4804940;29;20299;-69
2023/06/08 09:05:43;;;;;;;11.13;4.03;;;19.00;69.30;;;;;;4804662;29;20708;-70
2023/06/08 09:08:10;;;;;;;12.73;4.50;;;19.00;70.30;;;;;;4803541;29;20296;-70
2023/06/08 09:10:35;;;;;;;9.50;3.93;;;19.20;69.80;;;;;;4805035;29;20295;-70
2023/06/08 09:13:02;;;;;;;10.90;4.13;;;19.20;69.80;;;;;;4803951;29;20678;-70
2023/06/08 09:15:34;;;;;;;11.97;4.40;;;19.20;69.90;;;;;;4806210;29;20054;-70
2023/06/08 09:18:13;;;;;;;13.33;4.47;;;19.30;69.00;;;;;;4806633;29;20318;-70
2023/06/08 09:20:39;;;;;;;11.30;3.83;;;19.30;69.20;;;;;;4807476;29;20791;-71
2023/06/08 09:23:15;;;;;;;10.47;3.83;;;19.40;68.90;;;;;;4812105;29;20791;-70
2023/06/08 09:25:42;;;;;;;9.43;4.37;;;19.50;67.40;;;;;;4807727;29;20061;-71
2023/06/08 09:28:22;;;;;;;11.57;4.50;;;19.50;67.60;;;;;;4810526;29;20299;-70
2023/06/08 09:30:51;;;;;;;10.03;4.23;;;19.40;66.40;;;;;;4800195;29;20046;-70
2023/06/08 09:33:23;;;;;;;11.33;3.67;;;19.40;66.70;;;;;;4804110;29;20422;-69
2023/06/08 09:36:04;;;;;;;11.03;4.33;;;19.40;68.00;;;;;;4801984;29;20465;-70
2023/06/08 09:38:32;;;;;;;9.77;4.50;;;19.50;67.10;;;;;;4805882;29;20189;-71
2023/06/08 09:41:22;;;;;;;11.03;4.70;;;19.50;67.40;;;;;;4803153;29;20102;-71
2023/06/08 09:43:49;;;;;;;11.43;4.47;;;19.50;67.00;;;;;;4802077;29;20293;-71
2023/06/08 09:46:51;;;;;;;11.07;3.97;;;19.50;67.90;;;;;;4800590;29;20057;-71
2023/06/08 09:49:17;;;;;;;10.00;3.97;;;19.70;68.40;;;;;;4775377;29;20403;-71
2023/06/08 09:51:51;;;;;;;11.80;4.10;;;19.70;67.20;;;;;;4786664;29;20054;-71
2023/06/08 09:54:19;;;;;;;10.63;4.20;;;19.70;66.70;;;;;;4805328;29;20048;-71
2023/06/08 09:56:54;;;;;;;9.00;4.13;;;19.70;66.60;;;;;;4808245;29;20099;-70
2023/06/08 09:59:31;;;;;;;10.90;4.22;;;19.70;67.30;;;;;;4794842;29;20050;-71
2023/06/08 10:02:15;;;;;;;13.30;3.70;;;19.80;67.10;;;;;;4804692;29;20423;-71
2023/06/08 10:04:44;;;;;;;9.70;4.03;;;19.90;66.70;;;;;;4806558;29;20035;-71
2023/06/08 10:07:15;;;;;;;8.63;3.80;;;19.90;66.60;;;;;;4807841;29;20453;-71
2023/06/08 10:09:48;;;;;;;10.53;4.23;;;19.90;65.60;;;;;;4806237;29;20069;-72
2023/06/08 10:12:14;;;;;;;10.33;3.83;;;19.90;66.40;;;;;;4803151;29;20051;-71
2023/06/08 10:14:40;;;;;;;9.00;3.67;;;19.90;66.80;;;;;;4808140;29;20042;-71
2023/06/08 10:17:07;;;;;;;9.83;3.47;;;19.90;66.50;;;;;;4795676;29;20046;-71
2023/06/08 10:19:35;;;;;;;10.73;4.00;;;20.00;67.40;;;;;;4807118;29;20080;-70
2023/06/08 10:22:01;;;;;;;9.47;3.70;;;20.10;66.20;;;;;;4809513;29;20045;-71
2023/06/08 10:24:30;;;;;;;9.00;3.03;;;20.20;65.00;;;;;;4801318;29;20116;-70
2023/06/08 10:27:09;;;;;;;11.90;3.90;;;20.20;66.10;;;;;;4826618;29;20064;-70
2023/06/08 10:29:35;;;;;;;9.77;3.77;;;20.20;65.20;;;;;;4806122;29;20150;-70
2023/06/08 10:32:05;;;;;;;10.20;3.70;;;20.20;64.70;;;;;;4804889;29;20126;-70
2023/06/08 10:34:40;;;;;;;12.37;3.60;;;20.30;65.00;;;;;;4807477;29;20077;-71
2023/06/08 10:37:24;;;;;;;11.47;3.67;;;20.30;65.10;;;;;;4793052;29;20118;-70
2023/06/08 10:39:50;;;;;;;8.80;3.50;;;20.30;65.30;;;;;;4808382;29;20081;-70
2023/06/08 10:42:19;;;;;;;11.00;4.13;;;20.40;64.70;;;;;;4809683;29;20076;-71
2023/06/08 10:44:56;;;;;;;13.50;4.23;;;20.40;64.50;;;;;;4804720;29;20604;-70
2023/06/08 10:47:22;;;;;;;11.90;3.73;;;20.40;64.40;;;;;;4795781;29;20060;-70
2023/06/08 10:49:57;;;;;;;13.67;4.13;;;20.40;63.40;;;;;;4793175;29;20151;-69
2023/06/08 10:52:23;;;;;;;11.20;3.63;;;20.30;63.80;;;;;;4802044;29;20046;-69
2023/06/08 10:54:58;;;;;;;12.87;4.10;;;20.30;63.70;;;;;;4808213;29;20049;-69
2023/06/08 10:57:45;;;;;;;8.00;3.30;;;20.40;64.20;;;;;;4816869;29;20042;-69
2023/06/08 11:00:28;;;;;;;10.70;3.80;;;20.50;64.10;;;;;;4803656;29;20042;-69
2023/06/08 11:02:54;;;;;;;10.47;3.70;;;20.50;63.60;;;;;;4800916;29;20110;-69
2023/06/08 11:05:21;;;;;;;8.90;3.70;;;20.50;63.90;;;;;;4794202;29;20408;-70
2023/06/08 11:07:46;;;;;;;11.33;3.50;;;20.60;64.40;;;;;;4800944;29;20054;-69
2023/06/08 11:10:12;;;;;;;7.27;3.57;;;20.70;64.20;;;;;;4804040;29;20077;-69
2023/06/08 11:12:38;;;;;;;8.20;3.80;;;20.80;63.60;;;;;;4797641;29;20518;-69
2023/06/08 11:15:05;;;;;;;10.40;4.50;;;20.90;62.80;;;;;;4801955;29;20051;-69
2023/06/08 11:17:38;;;;;;;8.97;4.53;;;20.90;61.90;;;;;;4783546;29;20043;-70
2023/06/08 11:20:07;;;;;;;10.10;4.30;;;20.80;62.60;;;;;;4802776;29;20050;-69
2023/06/08 11:22:33;;;;;;;11.93;4.93;;;20.80;63.20;;;;;;4807121;29;20039;-69
2023/06/08 11:25:00;;;;;;;11.00;4.63;;;20.70;63.30;;;;;;4800646;29;20530;-70
2023/06/08 11:27:26;;;;;;;9.20;4.43;;;20.70;63.30;;;;;;4803050;29;20035;-69
2023/06/08 11:29:52;;;;;;;11.50;5.10;;;20.60;63.50;;;;;;4819945;29;20099;-69
2023/06/08 11:32:18;;;;;;;10.17;4.80;;;20.70;64.00;;;;;;4804859;29;20109;-69
2023/06/08 11:34:45;;;;;;;15.53;4.40;;;20.80;63.30;;;;;;4794528;29;20561;-69
2023/06/08 11:37:17;;;;;;;15.53;5.33;;;20.70;64.20;;;;;;4799386;29;20051;-70
2023/06/08 11:39:44;;;;;;;12.93;4.40;;;20.80;63.80;;;;;;4799619;29;20042;-69
2023/06/08 11:42:10;;;;;;;11.17;4.33;;;20.80;63.60;;;;;;4793364;29;20081;-70
2023/06/08 11:44:36;;;;;;;11.57;3.67;;;20.80;63.10;;;;;;4815267;29;20057;-69
2023/06/08 11:47:06;;;;;;;9.40;3.60;;;20.70;63.70;;;;;;4802943;29;20229;-69
2023/06/08 11:49:54;;;;;;;12.67;4.37;;;20.70;64.30;;;;;;4799437;29;20499;-70
2023/06/08 11:52:24;;;;;;;11.00;4.40;;;20.80;63.60;;;;;;4822041;29;20061;-70
2023/06/08 11:55:01;;;;;;;10.13;3.43;;;20.90;61.70;;;;;;4817555;29;20045;-70
2023/06/08 11:57:44;;;;;;;11.23;3.53;;;20.90;61.40;;;;;;4808470;29;20084;-70
2023/06/08 12:00:34;;;;;;;11.73;3.87;;;20.90;60.60;;;;;;4809548;29;20244;-70
2023/06/08 12:03:16;;;;;;;7.53;2.97;;;20.70;60.50;;;;;;4801002;29;20062;-70
2023/06/08 12:05:44;;;;;;;7.63;3.43;;;20.60;62.10;;;;;;4803525;29;20053;-71
2023/06/08 12:08:14;;;;;;;11.23;4.13;;;20.80;62.40;;;;;;4794413;29;20039;-70
2023/06/08 12:10:42;;;;;;;10.87;4.10;;;20.90;61.20;;;;;;4806293;29;20121;-70
2023/06/08 12:13:12;;;;;;;6.57;3.10;;;20.90;61.60;;;;;;4804530;29;20069;-71
2023/06/08 12:15:41;;;;;;;9.43;3.07;;;20.90;60.10;;;;;;4814619;29;20054;-70
2023/06/08 12:18:13;;;;;;;8.27;3.03;;;20.80;61.50;;;;;;4803040;29;20046;-71
2023/06/08 12:20:40;;;;;;;7.00;3.40;;;20.90;60.40;;;;;;4794751;29;20050;-71
2023/06/08 12:23:07;;;;;;;9.57;2.80;;;21.00;59.70;;;;;;4804398;29;20089;-70
2023/06/08 12:25:33;;;;;;;8.20;3.13;;;20.90;59.90;;;;;;4810743;29;20050;-71
2023/06/08 12:27:59;;;;;;;6.90;3.53;;;20.80;60.50;;;;;;4801885;29;20050;-70
2023/06/08 12:30:25;;;;;;;8.33;3.10;;;20.70;60.70;;;;;;4805672;29;20137;-70
2023/06/08 12:32:52;;;;;;;8.47;3.53;;;20.60;61.50;;;;;;4804407;29;20103;-70
2023/06/08 12:35:22;;;;;;;8.77;3.77;;;20.60;61.50;;;;;;4805468;29;20049;-71
2023/06/08 12:37:50;;;;;;;10.20;4.20;;;20.60;60.10;;;;;;4799493;29;20051;-71
2023/06/08 12:40:20;;;;;;;12.97;3.73;;;20.70;60.40;;;;;;4804403;29;20053;-70
2023/06/08 12:42:49;;;;;;;8.97;3.40;;;20.60;60.80;;;;;;4802298;29;20108;-70
2023/06/08 12:45:22;;;;;;;8.03;2.80;;;20.60;59.70;;;;;;4808675;29;20050;-71